createdAt,value
2022-10-02T00:06:39.117Z,21.62
2022-10-02T00:13:57.749Z,21.68
2022-10-02T00:20:59.649Z,21.61
2022-10-02T00:28:19.226Z,21.56
2022-10-02T00:35:42.876Z,21.57
2022-10-02T00:42:57.014Z,21.56
2022-10-02T00:50:04.824Z,21.53
2022-10-02T00:57:00.456Z,21.57
2022-10-02T01:04:23.851Z,21.54
2022-10-02T01:11:07.265Z,21.55
2022-10-02T01:17:57.776Z,21.56
2022-10-02T01:25:03.215Z,21.54
2022-10-02T01:31:47.276Z,21.56
2022-10-02T01:38:32.826Z,21.54
2022-10-02T01:45:26.095Z,21.58
2022-10-02T01:52:51.884Z,21.54
2022-10-02T02:00:09.184Z,21.54
2022-10-02T02:07:14.983Z,21.53
2022-10-02T02:14:19.256Z,21.53
2022-10-02T02:21:24.990Z,21.69
2022-10-02T02:28:27.962Z,21.62
2022-10-02T02:35:35.831Z,21.6
2022-10-02T02:42:30.202Z,21.62
2022-10-02T02:49:43.176Z,21.67
2022-10-02T02:56:51.957Z,21.81
2022-10-02T03:03:44.907Z,21.89
2022-10-02T03:10:41.251Z,21.69
2022-10-02T03:17:43.939Z,21.61
2022-10-02T03:25:00.832Z,21.69
2022-10-02T03:32:04.902Z,21.67
2022-10-02T03:39:06.466Z,21.73
2022-10-02T03:45:51.237Z,21.65
2022-10-02T03:52:19.942Z,21.57
2022-10-02T03:59:14.984Z,21.56
2022-10-02T04:06:34.181Z,21.66
2022-10-02T04:13:51.292Z,21.62
2022-10-02T04:21:19.470Z,21.6
2022-10-02T04:28:21.905Z,21.65
2022-10-02T04:35:27.152Z,21.49
2022-10-02T04:42:47.406Z,21.51
2022-10-02T04:49:46.849Z,21.52
2022-10-02T04:56:48.511Z,21.44
2022-10-02T05:04:09.193Z,21.51
2022-10-02T05:11:12.353Z,21.49
2022-10-02T05:18:17.217Z,21.53
2022-10-02T05:25:31.212Z,21.52
2022-10-02T05:32:37.136Z,21.44
2022-10-02T05:39:45.380Z,21.6
2022-10-02T05:47:02.450Z,21.55
2022-10-02T05:54:07.044Z,21.55
2022-10-02T06:01:28.993Z,21.52
2022-10-02T06:08:35.064Z,21.51
2022-10-02T06:15:48.411Z,21.51
2022-10-02T06:22:59.369Z,21.54
2022-10-02T06:30:23.112Z,21.55
2022-10-02T06:37:36.973Z,21.54
2022-10-02T06:44:47.297Z,21.52
2022-10-02T06:51:55.492Z,21.52
2022-10-02T06:59:07.840Z,21.59
2022-10-02T07:06:12.030Z,21.55
2022-10-02T07:13:09.852Z,21.7
2022-10-02T07:20:19.268Z,21.71
2022-10-02T07:27:25.834Z,21.51
2022-10-02T07:34:23.554Z,21.52
2022-10-02T07:41:27.939Z,21.49
2022-10-02T07:48:41.086Z,21.47
2022-10-02T07:55:47.012Z,21.52
2022-10-02T08:02:51.594Z,21.49
2022-10-02T08:09:50.032Z,21.47
2022-10-02T08:17:00.630Z,21.48
2022-10-02T08:24:14.128Z,21.53
2022-10-02T08:31:22.963Z,21.46
2022-10-02T08:38:21.027Z,21.46
2022-10-02T08:45:31.959Z,21.52
2022-10-02T08:52:41.822Z,21.63
2022-10-02T08:59:33.200Z,21.51
2022-10-02T09:06:43.116Z,21.52
2022-10-02T09:13:51.569Z,21.63
2022-10-02T09:20:49.051Z,21.62
2022-10-02T09:27:57.286Z,21.57
2022-10-02T09:34:58.980Z,21.53
2022-10-02T09:42:14.121Z,21.49
2022-10-02T09:49:16.139Z,21.48
2022-10-02T09:56:28.623Z,21.51
2022-10-02T10:03:38.113Z,21.47
2022-10-02T10:10:43.305Z,21.48
2022-10-02T10:17:59.623Z,21.52
2022-10-02T10:25:20.344Z,21.58
2022-10-02T10:32:35.309Z,21.55
2022-10-02T10:39:40.111Z,21.55
2022-10-02T10:46:44.598Z,21.57
2022-10-02T10:54:05.073Z,21.61
2022-10-02T11:01:15.270Z,21.54
2022-10-02T11:08:29.918Z,21.59
2022-10-02T11:15:37.166Z,21.53
2022-10-02T11:22:38.755Z,21.53
2022-10-02T11:29:54.371Z,21.51
2022-10-02T11:36:54.155Z,21.57
2022-10-02T11:43:43.872Z,21.56
2022-10-02T11:50:49.416Z,21.54
2022-10-02T11:57:45.359Z,21.6
2022-10-02T12:05:01.579Z,21.72
2022-10-02T12:12:05.141Z,21.77
2022-10-02T12:19:11.164Z,21.8
2022-10-02T12:26:09.246Z,21.85
2022-10-02T12:33:33.188Z,21.83
2022-10-02T12:40:37.446Z,21.82
2022-10-02T12:47:55.348Z,21.81
2022-10-02T12:54:59.238Z,21.74
2022-10-02T13:02:11.353Z,21.72
2022-10-02T13:09:29.785Z,21.7
2022-10-02T13:16:34.459Z,21.77
2022-10-02T13:23:45.352Z,21.8
2022-10-02T13:30:59.208Z,21.76
2022-10-02T13:38:00.178Z,21.67
2022-10-02T13:45:08.346Z,21.75
2022-10-02T13:52:14.242Z,21.7
2022-10-02T13:59:28.486Z,21.69
2022-10-02T14:06:43.075Z,21.8
2022-10-02T14:14:03.527Z,21.91
2022-10-02T14:20:58.230Z,21.83
2022-10-02T14:28:11.315Z,21.78
2022-10-02T14:35:19.307Z,21.66
2022-10-02T14:42:15.328Z,21.64
2022-10-02T14:49:20.708Z,21.66
2022-10-02T14:56:27.250Z,21.58
2022-10-02T15:03:27.686Z,21.6
2022-10-02T15:10:35.760Z,21.5
2022-10-02T15:17:59.284Z,21.69
2022-10-02T15:25:04.397Z,21.78
2022-10-02T15:32:14.230Z,21.79
2022-10-02T15:39:36.261Z,21.73
2022-10-02T15:46:32.205Z,21.8
2022-10-02T15:53:41.385Z,21.88
2022-10-02T16:00:50.379Z,21.71
2022-10-02T16:07:56.436Z,21.55
2022-10-02T16:15:01.267Z,21.55
2022-10-02T16:22:05.204Z,21.59
2022-10-02T16:29:06.215Z,21.72
2022-10-02T16:36:19.143Z,21.83
2022-10-02T16:43:18.553Z,21.75
2022-10-02T16:50:24.287Z,21.88
2022-10-02T16:57:52.763Z,21.71
2022-10-02T17:05:11.182Z,21.71
2022-10-02T17:12:18.310Z,21.71
2022-10-02T17:19:22.378Z,21.65
2022-10-02T17:26:37.402Z,21.69
2022-10-02T17:33:43.452Z,21.56
2022-10-02T17:40:57.164Z,21.6
2022-10-02T17:48:09.278Z,21.47
2022-10-02T17:55:24.259Z,21.5
2022-10-02T18:02:43.870Z,21.49
2022-10-02T18:09:53.281Z,21.47
2022-10-02T18:17:06.317Z,21.49
2022-10-02T18:24:18.047Z,21.49
2022-10-02T18:31:55.060Z,21.52
2022-10-02T18:39:03.704Z,21.51
2022-10-02T18:46:01.322Z,21.44
2022-10-02T18:53:01.303Z,21.5
2022-10-02T19:00:13.565Z,21.49
2022-10-02T19:07:18.333Z,21.46
2022-10-02T19:14:24.711Z,21.51
2022-10-02T19:21:24.375Z,21.49
2022-10-02T19:28:23.462Z,21.53
2022-10-02T19:35:18.386Z,21.48
2022-10-02T19:42:17.518Z,21.46
2022-10-02T19:49:29.552Z,21.44
2022-10-02T19:56:39.651Z,21.44
2022-10-02T20:03:39.605Z,21.46
2022-10-02T20:10:47.621Z,21.51
2022-10-02T20:17:54.347Z,21.49
2022-10-02T20:24:59.618Z,21.5
2022-10-02T20:32:21.663Z,21.49
2022-10-02T20:39:32.960Z,21.48
2022-10-02T20:46:31.900Z,21.57
2022-10-02T20:53:46.226Z,21.72
2022-10-02T21:01:02.423Z,21.68
2022-10-02T21:08:06.357Z,21.68
2022-10-02T21:15:11.606Z,21.62
2022-10-02T21:22:19.335Z,21.77
2022-10-02T21:29:37.420Z,21.65
2022-10-02T21:36:36.596Z,21.64
2022-10-02T21:43:47.690Z,21.62
2022-10-02T21:51:03.572Z,21.57
2022-10-02T21:58:16.490Z,21.52
2022-10-02T22:05:30.260Z,21.56
2022-10-02T22:12:25.803Z,21.55
2022-10-02T22:19:34.241Z,21.58
2022-10-02T22:26:35.556Z,21.56
2022-10-02T22:33:33.597Z,21.56
2022-10-02T22:40:56.444Z,21.59
2022-10-02T22:48:03.507Z,21.59
2022-10-02T22:55:14.433Z,21.6
2022-10-02T23:02:28.717Z,21.58
2022-10-02T23:09:38.472Z,21.5
2022-10-02T23:16:54.984Z,21.52
2022-10-02T23:24:22.594Z,21.53
2022-10-02T23:31:57.112Z,21.51
2022-10-02T23:39:01.453Z,21.55
2022-10-02T23:46:06.747Z,21.56
2022-10-02T23:52:57.338Z,21.55
2022-10-02T23:59:58.744Z,21.5
